Time;durP1;ratioP1;P1;durP2;ratioP2;P2;SDS_P1;SDS_P2;PMS_P1;PMS_P2;Temp;Humidity;BMP_temperature;BMP_pressure;BME280_temperature;BME280_humidity;BME280_pressure;Samples;Min_cycle;Max_cycle;Signal;HPM_P1;HPM_P2
2023/03/16 00:02:08;;;;;;;6.63;3.17;;;4.60;95.70;;;;;;5095607;28;20357;-64
2023/03/16 00:04:36;;;;;;;6.60;3.25;;;4.60;95.70;;;;;;5098911;28;20024;-64
2023/03/16 00:07:03;;;;;;;6.30;3.40;;;4.60;95.80;;;;;;5089352;28;20028;-64
2023/03/16 00:09:29;;;;;;;5.88;2.75;;;4.60;95.80;;;;;;5094517;28;20024;-64
2023/03/16 00:11:57;;;;;;;9.27;3.25;;;4.60;95.80;;;;;;5090592;28;20038;-64
2023/03/16 00:14:23;;;;;;;8.30;3.90;;;4.60;95.90;;;;;;5093255;28;20403;-64
2023/03/16 00:16:49;;;;;;;6.55;2.88;;;4.60;95.90;;;;;;5082400;28;20028;-64
2023/03/16 00:19:15;;;;;;;7.10;3.85;;;4.50;95.90;;;;;;5078131;28;20596;-64
2023/03/16 00:21:40;;;;;;;6.35;3.30;;;4.50;95.90;;;;;;5078796;28;20016;-64
2023/03/16 00:24:06;;;;;;;5.25;2.97;;;4.50;95.90;;;;;;5070758;28;20029;-64
2023/03/16 00:26:32;;;;;;;6.30;3.13;;;4.40;96.00;;;;;;5096306;28;20051;-64
2023/03/16 00:28:57;;;;;;;6.75;3.30;;;4.40;96.00;;;;;;5101345;28;20038;-64
2023/03/16 00:31:23;;;;;;;6.45;3.45;;;4.40;96.00;;;;;;5091772;28;20012;-64
2023/03/16 00:33:50;;;;;;;9.93;3.78;;;4.40;96.10;;;;;;5107771;28;20036;-64
2023/03/16 00:36:16;;;;;;;7.60;2.90;;;4.30;96.10;;;;;;5089080;28;20024;-64
2023/03/16 00:38:45;;;;;;;5.03;3.40;;;4.30;96.10;;;;;;5092337;28;20088;-64
2023/03/16 00:41:13;;;;;;;7.15;2.75;;;4.30;96.10;;;;;;5090737;28;20028;-64
2023/03/16 00:43:44;;;;;;;7.32;2.70;;;4.30;96.10;;;;;;5100755;28;20039;-64
2023/03/16 00:46:15;;;;;;;6.88;2.72;;;4.30;96.10;;;;;;5084253;28;20024;-63
2023/03/16 00:48:45;;;;;;;6.80;3.25;;;4.30;96.10;;;;;;5086354;28;20036;-64
2023/03/16 00:51:14;;;;;;;8.88;3.25;;;4.30;96.10;;;;;;5095911;28;20016;-63
2023/03/16 00:53:41;;;;;;;6.15;3.13;;;4.20;96.10;;;;;;5096143;28;20039;-63
2023/03/16 00:56:08;;;;;;;7.38;3.17;;;4.20;96.10;;;;;;5096904;28;20020;-64
2023/03/16 00:58:36;;;;;;;10.63;3.13;;;4.20;96.10;;;;;;5098084;28;20047;-63
2023/03/16 01:01:03;;;;;;;6.45;2.65;;;4.20;96.10;;;;;;5098718;28;20016;-63
2023/03/16 01:03:29;;;;;;;7.03;3.40;;;4.10;96.20;;;;;;5095101;28;20040;-63
2023/03/16 01:05:58;;;;;;;9.27;3.40;;;4.10;96.20;;;;;;5091969;28;20032;-64
2023/03/16 01:08:26;;;;;;;6.30;2.70;;;4.10;96.20;;;;;;5094012;28;20107;-64
2023/03/16 01:10:56;;;;;;;6.90;2.72;;;4.20;96.20;;;;;;5094872;28;20069;-64
2023/03/16 01:13:22;;;;;;;6.90;3.15;;;4.20;96.20;;;;;;5089730;28;20047;-63
2023/03/16 01:15:50;;;;;;;6.72;2.53;;;4.20;96.20;;;;;;5088708;28;20043;-63
2023/03/16 01:18:16;;;;;;;7.68;3.47;;;4.20;96.10;;;;;;5078420;28;20024;-64
2023/03/16 01:20:49;;;;;;;5.63;3.08;;;4.10;96.10;;;;;;5094819;28;20032;-64
2023/03/16 01:23:16;;;;;;;5.93;3.33;;;4.20;96.20;;;;;;5097775;28;20107;-63
2023/03/16 01:25:42;;;;;;;8.15;2.95;;;4.10;96.20;;;;;;5101071;28;20023;-64
2023/03/16 01:28:08;;;;;;;6.28;2.65;;;4.10;96.20;;;;;;5097146;28;20036;-64
2023/03/16 01:30:34;;;;;;;5.68;2.78;;;4.00;96.20;;;;;;5101029;28;20077;-63
2023/03/16 01:33:00;;;;;;;5.40;2.70;;;4.00;96.20;;;;;;5087103;28;20040;-64
2023/03/16 01:35:26;;;;;;;8.30;3.08;;;4.00;96.30;;;;;;5090455;28;20020;-63
2023/03/16 01:37:51;;;;;;;6.03;3.30;;;4.00;96.20;;;;;;5068251;28;20060;-68
2023/03/16 01:40:17;;;;;;;6.90;2.95;;;4.00;96.30;;;;;;5094582;28;20274;-69
2023/03/16 01:42:48;;;;;;;6.88;2.88;;;4.00;96.30;;;;;;5109671;28;20024;-68
2023/03/16 01:45:52;;;;;;;6.25;3.17;;;3.90;96.30;;;;;;5096013;28;20042;-69
2023/03/16 01:48:20;;;;;;;7.90;2.63;;;4.00;96.30;;;;;;5089177;28;20032;-69
2023/03/16 01:50:46;;;;;;;7.38;2.83;;;4.00;96.30;;;;;;5088114;28;20234;-69
2023/03/16 01:53:12;;;;;;;4.95;2.80;;;3.90;96.30;;;;;;5101991;28;20109;-69
2023/03/16 01:55:38;;;;;;;7.47;2.88;;;4.00;96.20;;;;;;5093916;28;20506;-68
2023/03/16 01:58:04;;;;;;;5.38;2.65;;;3.90;96.20;;;;;;5102855;28;20270;-68
2023/03/16 02:00:32;;;;;;;9.50;2.75;;;3.90;96.20;;;;;;5094416;28;20408;-68
2023/03/16 02:03:10;;;;;;;6.72;2.63;;;3.90;96.30;;;;;;5106721;28;20055;-69
2023/03/16 02:05:51;;;;;;;4.35;2.33;;;3.90;96.30;;;;;;5096534;28;20027;-69
2023/03/16 02:08:18;;;;;;;6.13;2.75;;;3.80;96.30;;;;;;5096851;28;20360;-68
2023/03/16 02:10:44;;;;;;;4.80;2.88;;;3.80;96.30;;;;;;5100386;28;20023;-69
2023/03/16 02:13:11;;;;;;;7.00;3.30;;;3.80;96.30;;;;;;5098091;28;20031;-69
2023/03/16 02:15:37;;;;;;;8.60;3.05;;;3.80;96.30;;;;;;5093957;28;20027;-68
2023/03/16 02:18:04;;;;;;;7.95;3.78;;;3.90;96.30;;;;;;5093183;28;20020;-68
2023/03/16 02:20:48;;;;;;;6.13;3.38;;;3.70;96.30;;;;;;5096818;28;20119;-68
2023/03/16 02:23:19;;;;;;;4.78;2.65;;;3.70;96.50;;;;;;5101007;28;20023;-69
2023/03/16 02:25:54;;;;;;;5.05;3.22;;;3.70;96.50;;;;;;5095434;28;20020;-68
2023/03/16 02:28:43;;;;;;;4.40;2.35;;;3.70;96.40;;;;;;5097638;28;20074;-69
2023/03/16 02:31:11;;;;;;;7.70;2.88;;;3.70;96.40;;;;;;5103809;28;20032;-69
2023/03/16 02:33:38;;;;;;;7.13;3.10;;;3.70;96.30;;;;;;5092655;28;20051;-69
2023/03/16 02:36:04;;;;;;;8.65;3.22;;;3.70;96.40;;;;;;5090252;28;20055;-69
2023/03/16 02:38:30;;;;;;;7.95;3.45;;;3.70;96.30;;;;;;5093046;28;20491;-69
2023/03/16 02:41:16;;;;;;;5.60;2.78;;;3.70;96.40;;;;;;5101790;28;20028;-68
2023/03/16 02:43:48;;;;;;;6.93;2.90;;;3.60;96.40;;;;;;5099072;28;20063;-69
2023/03/16 02:46:15;;;;;;;4.30;2.58;;;3.60;96.40;;;;;;5094305;28;20093;-68
2023/03/16 02:49:02;;;;;;;7.82;2.72;;;3.60;96.40;;;;;;5097319;28;20047;-68
2023/03/16 02:51:29;;;;;;;6.78;2.35;;;3.60;96.40;;;;;;5095857;28;20024;-68
2023/03/16 02:53:54;;;;;;;5.20;2.78;;;3.50;96.30;;;;;;5100578;28;20043;-68
2023/03/16 02:56:21;;;;;;;6.68;2.83;;;3.60;96.30;;;;;;5096179;28;20031;-68
2023/03/16 02:58:47;;;;;;;5.22;3.13;;;3.50;96.30;;;;;;5095267;28;20044;-68
2023/03/16 03:01:13;;;;;;;7.35;4.35;;;3.50;96.30;;;;;;5092196;28;20425;-68
2023/03/16 03:03:38;;;;;;;5.03;2.20;;;3.50;96.30;;;;;;5095015;28;20089;-68
2023/03/16 03:06:04;;;;;;;6.07;3.42;;;3.50;96.40;;;;;;5101933;28;20539;-68
2023/03/16 03:08:31;;;;;;;7.40;2.97;;;3.50;96.40;;;;;;5101354;28;20038;-68
2023/03/16 03:10:57;;;;;;;5.28;3.08;;;3.50;96.40;;;;;;5083682;28;20069;-69
2023/03/16 03:13:23;;;;;;;5.13;2.55;;;3.50;96.40;;;;;;5091558;28;20119;-69
2023/03/16 03:15:49;;;;;;;4.70;2.92;;;3.60;96.30;;;;;;5099399;28;20115;-69
2023/03/16 03:18:14;;;;;;;4.18;2.90;;;3.50;96.30;;;;;;5105387;28;20459;-69
2023/03/16 03:20:40;;;;;;;8.23;2.53;;;3.50;96.30;;;;;;5099556;28;20035;-69
2023/03/16 03:23:06;;;;;;;4.80;2.30;;;3.50;96.20;;;;;;5101771;28;20259;-69
2023/03/16 03:25:33;;;;;;;6.22;2.72;;;3.50;96.30;;;;;;5104310;28;20425;-69
2023/03/16 03:28:00;;;;;;;8.40;3.78;;;3.50;96.30;;;;;;5098269;28;20532;-69
2023/03/16 03:30:26;;;;;;;4.85;2.38;;;3.50;96.30;;;;;;5098992;28;20028;-69
2023/03/16 03:32:52;;;;;;;6.50;3.08;;;3.50;96.50;;;;;;5093654;28;20024;-68
2023/03/16 03:35:18;;;;;;;7.63;2.97;;;3.50;96.20;;;;;;5095468;28;20047;-69
2023/03/16 03:37:44;;;;;;;3.80;2.50;;;3.50;96.20;;;;;;5097002;28;20051;-69
2023/03/16 03:40:12;;;;;;;6.35;3.28;;;3.50;96.20;;;;;;5106108;28;20479;-68
2023/03/16 03:42:39;;;;;;;6.70;2.53;;;3.50;96.20;;;;;;5089740;28;20062;-68
2023/03/16 03:45:11;;;;;;;7.22;2.78;;;3.50;96.20;;;;;;5092290;28;20031;-68
2023/03/16 03:47:37;;;;;;;5.93;3.03;;;3.50;96.20;;;;;;5091091;28;20099;-68
2023/03/16 03:50:03;;;;;;;5.25;2.78;;;3.50;96.20;;;;;;5092664;28;20047;-68
2023/03/16 03:52:29;;;;;;;6.15;2.72;;;3.50;96.20;;;;;;5098487;28;20020;-68
2023/03/16 03:54:55;;;;;;;7.70;2.45;;;3.50;96.20;;;;;;5096152;28;20027;-67
2023/03/16 03:57:21;;;;;;;4.88;2.90;;;3.40;96.20;;;;;;5089563;28;20027;-67
2023/03/16 03:59:46;;;;;;;5.95;2.88;;;3.50;96.20;;;;;;5090602;28;20044;-67
2023/03/16 04:02:12;;;;;;;6.45;2.83;;;3.50;96.20;;;;;;5102427;28;20120;-66
2023/03/16 04:04:39;;;;;;;6.90;3.00;;;3.40;96.20;;;;;;5101673;28;20474;-67
2023/03/16 04:07:05;;;;;;;9.63;2.70;;;3.40;96.40;;;;;;5103317;28;20059;-67
2023/03/16 04:09:32;;;;;;;6.32;2.65;;;3.40;96.10;;;;;;5100150;28;20033;-68
2023/03/16 04:11:59;;;;;;;6.80;3.22;;;3.40;96.10;;;;;;5092827;28;20056;-68
2023/03/16 04:14:25;;;;;;;9.73;3.03;;;3.40;96.20;;;;;;5095747;28;20422;-67
2023/03/16 04:16:51;;;;;;;5.63;3.10;;;3.40;96.10;;;;;;5083944;28;20027;-67
2023/03/16 04:19:16;;;;;;;6.22;2.60;;;3.40;96.10;;;;;;5093088;28;20039;-68
2023/03/16 04:21:42;;;;;;;8.38;3.35;;;3.30;96.20;;;;;;5092300;28;20107;-67
2023/03/16 04:24:08;;;;;;;7.90;3.08;;;3.30;96.20;;;;;;5092698;28;20059;-67
2023/03/16 04:26:33;;;;;;;5.72;2.65;;;3.30;96.10;;;;;;5089985;28;20030;-67
2023/03/16 04:28:59;;;;;;;4.57;2.42;;;3.30;96.10;;;;;;5102484;28;20032;-67
2023/03/16 04:31:24;;;;;;;7.40;2.80;;;3.30;96.10;;;;;;5100157;28;20486;-67
2023/03/16 04:33:53;;;;;;;7.88;3.08;;;3.30;96.10;;;;;;5093419;28;20032;-67
2023/03/16 04:36:22;;;;;;;6.40;2.30;;;3.30;96.10;;;;;;5095559;28;20043;-67
2023/03/16 04:38:49;;;;;;;4.90;2.60;;;3.30;96.10;;;;;;5087116;28;20485;-67
2023/03/16 04:41:15;;;;;;;7.65;2.88;;;3.20;96.10;;;;;;5104017;28;20059;-67
2023/03/16 04:43:42;;;;;;;6.20;3.03;;;3.40;96.20;;;;;;5091309;28;20056;-67
2023/03/16 04:46:08;;;;;;;5.50;2.83;;;3.30;96.20;;;;;;5096308;28;20747;-67
2023/03/16 04:48:34;;;;;;;5.00;3.00;;;3.20;96.10;;;;;;5105142;28;20383;-67
2023/03/16 04:51:00;;;;;;;8.52;2.85;;;3.30;96.30;;;;;;5088443;28;20034;-67
2023/03/16 04:53:26;;;;;;;6.93;3.35;;;3.20;96.10;;;;;;5096487;28;20047;-66
2023/03/16 04:55:52;;;;;;;4.28;2.53;;;3.20;96.10;;;;;;5099015;28;20600;-66
2023/03/16 04:58:17;;;;;;;5.45;2.70;;;3.20;96.20;;;;;;5097572;28;20463;-66
2023/03/16 05:00:44;;;;;;;8.30;2.78;;;3.20;96.20;;;;;;5098892;28;20063;-65
2023/03/16 05:03:10;;;;;;;4.20;2.72;;;3.20;96.20;;;;;;5078623;28;20036;-68
2023/03/16 05:05:38;;;;;;;7.03;2.70;;;3.20;96.20;;;;;;5099645;28;20034;-69
2023/03/16 05:08:05;;;;;;;9.55;2.53;;;3.20;96.20;;;;;;5100613;28;20437;-69
2023/03/16 05:10:32;;;;;;;4.47;2.63;;;3.20;96.20;;;;;;5080373;28;20387;-69
2023/03/16 05:12:59;;;;;;;5.60;2.83;;;3.10;96.20;;;;;;5089884;28;20042;-69
2023/03/16 05:15:25;;;;;;;5.57;2.78;;;3.30;96.20;;;;;;5097190;28;20036;-69
2023/03/16 05:17:50;;;;;;;6.80;3.22;;;3.10;96.10;;;;;;5088861;28;20076;-69
2023/03/16 05:20:16;;;;;;;8.45;2.55;;;3.10;96.10;;;;;;5088607;28;20035;-69
2023/03/16 05:22:44;;;;;;;6.50;3.13;;;3.10;96.20;;;;;;5092791;28;20027;-70
2023/03/16 05:25:14;;;;;;;4.72;2.65;;;3.10;96.20;;;;;;5089372;28;20032;-70
2023/03/16 05:27:44;;;;;;;5.78;2.72;;;3.10;96.20;;;;;;5085636;28;20378;-70
2023/03/16 05:30:12;;;;;;;8.40;2.67;;;3.10;96.30;;;;;;5097962;28;20036;-69
2023/03/16 05:32:38;;;;;;;6.68;2.15;;;3.10;96.20;;;;;;5088419;28;20020;-70
2023/03/16 05:35:05;;;;;;;7.85;2.85;;;3.10;96.20;;;;;;5094147;28;20032;-69
2023/03/16 05:37:32;;;;;;;6.20;2.80;;;3.10;96.30;;;;;;5092277;28;20020;-68
2023/03/16 05:39:58;;;;;;;7.72;2.83;;;3.10;96.30;;;;;;5091925;28;20150;-69
2023/03/16 05:42:25;;;;;;;7.15;3.17;;;3.00;96.20;;;;;;5108227;28;20070;-68
2023/03/16 05:44:52;;;;;;;7.38;3.20;;;3.00;96.20;;;;;;5099505;28;20074;-69
2023/03/16 05:47:18;;;;;;;5.50;3.20;;;3.00;96.30;;;;;;5097524;28;20289;-69
2023/03/16 05:49:44;;;;;;;9.40;2.83;;;3.10;96.30;;;;;;5089546;28;20542;-69
2023/03/16 05:52:10;;;;;;;6.43;3.45;;;3.10;96.30;;;;;;5098707;28;20051;-69
2023/03/16 05:54:35;;;;;;;5.68;3.22;;;3.10;96.30;;;;;;5100546;28;20044;-70
2023/03/16 05:57:01;;;;;;;6.25;2.40;;;3.10;96.30;;;;;;5088806;28;20024;-69
2023/03/16 05:59:29;;;;;;;4.65;2.58;;;3.20;96.20;;;;;;5091151;28;20066;-69
2023/03/16 06:01:55;;;;;;;4.50;3.00;;;3.20;96.20;;;;;;5094635;28;20023;-69
2023/03/16 06:04:20;;;;;;;4.43;3.13;;;3.20;96.40;;;;;;5100728;28;20112;-69
2023/03/16 06:06:46;;;;;;;7.70;2.75;;;3.20;96.20;;;;;;5100457;28;20039;-70
2023/03/16 06:09:12;;;;;;;4.63;2.42;;;3.20;96.20;;;;;;5093919;28;20024;-70
2023/03/16 06:11:37;;;;;;;5.60;2.95;;;3.20;96.20;;;;;;5090500;28;20050;-69
2023/03/16 06:14:04;;;;;;;6.25;3.47;;;3.20;96.30;;;;;;5092301;28;20411;-70
2023/03/16 06:16:29;;;;;;;7.15;3.10;;;3.20;96.30;;;;;;5089471;28;20035;-69
2023/03/16 06:18:55;;;;;;;8.60;3.10;;;3.30;96.30;;;;;;5093687;28;20027;-69
2023/03/16 06:21:22;;;;;;;5.70;2.80;;;3.40;96.30;;;;;;5102158;28;20544;-70
2023/03/16 06:23:47;;;;;;;8.57;2.85;;;3.40;96.20;;;;;;5086778;28;20120;-70
2023/03/16 06:26:13;;;;;;;5.60;3.22;;;3.30;96.20;;;;;;5093591;28;20115;-69
2023/03/16 06:28:40;;;;;;;6.45;3.22;;;3.40;96.20;;;;;;5093970;28;20333;-70
2023/03/16 06:31:05;;;;;;;5.70;3.60;;;3.40;96.20;;;;;;5096408;27;20360;-70
2023/03/16 06:33:31;;;;;;;9.15;3.40;;;3.50;96.20;;;;;;5088699;28;20081;-70
2023/03/16 06:35:57;;;;;;;5.97;2.83;;;3.50;96.20;;;;;;5090886;28;20387;-70
2023/03/16 06:38:22;;;;;;;4.90;3.35;;;3.50;96.20;;;;;;5104363;28;20027;-70
2023/03/16 06:40:52;;;;;;;5.20;2.60;;;3.40;96.20;;;;;;5093452;28;20088;-68
2023/03/16 06:43:18;;;;;;;9.45;3.20;;;3.60;96.20;;;;;;5104347;28;20455;-70
2023/03/16 06:45:44;;;;;;;9.77;4.53;;;3.60;96.20;;;;;;5093446;28;20263;-69
2023/03/16 06:48:10;;;;;;;4.65;2.70;;;3.70;96.20;;;;;;5091860;28;20119;-70
2023/03/16 06:50:36;;;;;;;6.20;3.50;;;3.80;96.10;;;;;;5100638;28;20047;-70
2023/03/16 06:53:01;;;;;;;6.35;3.45;;;3.80;96.00;;;;;;5107988;28;20070;-69
2023/03/16 06:55:27;;;;;;;10.30;4.63;;;3.80;96.00;;;;;;5106666;28;20021;-69
2023/03/16 06:57:52;;;;;;;5.60;3.35;;;3.80;96.00;;;;;;5096231;28;20040;-67
2023/03/16 07:00:18;;;;;;;7.93;3.70;;;3.90;96.00;;;;;;5092831;28;20110;-68
2023/03/16 07:02:44;;;;;;;6.80;3.63;;;3.90;96.00;;;;;;5090168;28;20534;-69
2023/03/16 07:05:12;;;;;;;5.63;3.03;;;4.00;96.00;;;;;;5090743;28;20530;-69
2023/03/16 07:07:41;;;;;;;11.43;3.35;;;4.00;95.90;;;;;;5087712;28;20071;-67
2023/03/16 07:10:14;;;;;;;5.90;2.90;;;4.10;95.90;;;;;;5084291;28;20518;-67
2023/03/16 07:12:41;;;;;;;5.85;2.97;;;4.10;95.80;;;;;;5089412;28;20033;-67
2023/03/16 07:15:07;;;;;;;4.90;2.63;;;4.20;95.80;;;;;;5089049;28;20115;-68
2023/03/16 07:17:32;;;;;;;6.22;3.38;;;4.20;95.70;;;;;;5089339;28;20055;-69
2023/03/16 07:19:58;;;;;;;7.13;3.05;;;4.30;95.70;;;;;;5101724;28;20493;-69
2023/03/16 07:22:24;;;;;;;8.85;3.20;;;4.30;95.70;;;;;;5093860;28;20388;-69
2023/03/16 07:24:55;;;;;;;7.68;3.00;;;4.40;95.70;;;;;;5101781;28;20024;-69
2023/03/16 07:27:22;;;;;;;5.97;3.38;;;4.40;95.60;;;;;;5098162;28;20119;-69
2023/03/16 07:29:48;;;;;;;6.55;2.75;;;4.50;95.50;;;;;;5089614;28;20028;-69
2023/03/16 07:32:14;;;;;;;10.35;3.45;;;4.60;95.50;;;;;;5089233;28;20035;-68
2023/03/16 07:34:40;;;;;;;6.47;3.13;;;4.60;95.40;;;;;;5091667;28;20040;-68
2023/03/16 07:37:07;;;;;;;6.68;3.45;;;4.70;95.40;;;;;;5089063;28;20024;-69
2023/03/16 07:39:36;;;;;;;4.72;2.58;;;4.80;95.40;;;;;;5096576;28;20024;-69
2023/03/16 07:42:02;;;;;;;6.28;2.75;;;4.80;95.30;;;;;;5097849;28;20023;-69
2023/03/16 07:44:28;;;;;;;5.45;2.75;;;4.90;95.30;;;;;;5083283;28;20119;-70
2023/03/16 07:46:54;;;;;;;6.47;2.60;;;4.90;95.20;;;;;;5091738;28;20099;-69
2023/03/16 07:49:20;;;;;;;6.50;3.17;;;5.00;95.10;;;;;;5090403;28;20054;-70
2023/03/16 07:51:45;;;;;;;5.45;2.33;;;5.10;95.00;;;;;;5094152;28;20028;-70
2023/03/16 07:54:12;;;;;;;5.38;2.22;;;5.10;95.00;;;;;;5094689;28;20119;-69
2023/03/16 07:56:38;;;;;;;7.25;2.55;;;5.20;94.90;;;;;;5091549;28;20035;-70
2023/03/16 07:59:04;;;;;;;7.03;2.70;;;5.30;94.80;;;;;;5083981;28;20051;-70
2023/03/16 08:01:30;;;;;;;7.68;3.65;;;5.30;94.80;;;;;;5090251;28;20036;-70
2023/03/16 08:03:56;;;;;;;7.93;3.38;;;5.40;94.80;;;;;;5083510;28;20230;-70
2023/03/16 08:06:24;;;;;;;8.57;3.40;;;5.40;94.80;;;;;;5076896;28;20028;-70
2023/03/16 08:08:50;;;;;;;9.45;3.53;;;5.50;94.70;;;;;;5093873;28;20064;-70
2023/03/16 08:11:22;;;;;;;10.18;4.35;;;5.60;94.60;;;;;;5093528;28;20036;-71
2023/03/16 08:13:52;;;;;;;4.43;2.75;;;5.60;94.60;;;;;;5088751;28;20075;-71
2023/03/16 08:16:21;;;;;;;7.93;3.55;;;5.70;94.50;;;;;;5107852;28;20031;-71
2023/03/16 08:18:48;;;;;;;4.82;2.47;;;5.70;94.40;;;;;;5098931;28;20028;-72
2023/03/16 08:21:14;;;;;;;6.57;2.95;;;5.80;94.30;;;;;;5101149;28;20447;-70
2023/03/16 08:23:39;;;;;;;6.97;3.20;;;5.80;94.20;;;;;;5095871;28;20042;-69
2023/03/16 08:26:07;;;;;;;8.23;2.70;;;5.90;94.10;;;;;;5092573;28;20510;-70
2023/03/16 08:28:34;;;;;;;9.23;4.53;;;6.00;94.00;;;;;;5091864;28;20466;-70
2023/03/16 08:31:00;;;;;;;8.80;3.42;;;6.00;94.00;;;;;;5084923;28;20360;-70
2023/03/16 08:33:26;;;;;;;6.55;3.15;;;6.10;94.00;;;;;;5092135;28;20049;-71
2023/03/16 08:35:52;;;;;;;6.15;3.25;;;6.20;93.90;;;;;;5103697;28;20031;-70
2023/03/16 08:38:19;;;;;;;10.77;2.92;;;6.20;93.80;;;;;;5090662;28;20201;-71
2023/03/16 08:40:47;;;;;;;3.75;2.15;;;6.30;93.70;;;;;;5090072;28;20032;-70
2023/03/16 08:43:17;;;;;;;6.05;2.40;;;6.30;93.60;;;;;;5072848;28;20115;-70
2023/03/16 08:45:47;;;;;;;5.40;2.40;;;6.30;93.50;;;;;;5098151;28;20083;-71
2023/03/16 08:48:13;;;;;;;5.50;2.10;;;6.40;93.50;;;;;;5092975;28;20051;-70
2023/03/16 08:50:42;;;;;;;5.13;1.95;;;6.40;93.40;;;;;;5093828;28;20074;-70
2023/03/16 08:53:09;;;;;;;4.22;2.10;;;6.50;93.20;;;;;;5094418;28;20135;-69
2023/03/16 08:55:35;;;;;;;5.55;2.85;;;6.60;93.10;;;;;;5097878;28;20608;-69
2023/03/16 08:58:01;;;;;;;10.68;2.65;;;6.60;92.90;;;;;;5099661;28;20433;-68
2023/03/16 09:00:28;;;;;;;7.43;2.95;;;6.60;92.80;;;;;;5089098;28;20028;-69
2023/03/16 09:02:54;;;;;;;4.68;2.00;;;6.70;92.80;;;;;;5093414;28;20027;-70
2023/03/16 09:05:22;;;;;;;6.63;2.92;;;6.80;92.70;;;;;;5101324;28;20059;-70
2023/03/16 09:07:48;;;;;;;6.95;2.70;;;6.80;92.60;;;;;;5099506;28;20436;-69
2023/03/16 09:10:14;;;;;;;8.05;2.50;;;6.90;92.60;;;;;;5112265;27;20406;-69
2023/03/16 09:12:41;;;;;;;8.40;2.60;;;6.90;92.60;;;;;;5106994;28;20031;-70
2023/03/16 09:15:09;;;;;;;6.28;2.20;;;7.00;92.60;;;;;;5104209;28;20086;-69
2023/03/16 09:17:35;;;;;;;7.55;3.00;;;7.00;92.40;;;;;;5086672;28;20050;-70
2023/03/16 09:20:01;;;;;;;5.82;2.00;;;7.00;92.30;;;;;;5105571;28;20034;-69
2023/03/16 09:22:27;;;;;;;4.38;2.15;;;7.10;92.40;;;;;;5100066;27;20503;-70
2023/03/16 09:24:53;;;;;;;7.70;2.00;;;7.20;92.20;;;;;;5104400;28;20036;-69
2023/03/16 09:27:19;;;;;;;6.13;2.33;;;7.20;92.10;;;;;;5108356;28;20566;-70
2023/03/16 09:29:45;;;;;;;7.70;2.40;;;7.20;91.90;;;;;;5107056;28;20027;-71
2023/03/16 09:32:11;;;;;;;6.97;2.17;;;7.30;91.80;;;;;;5097963;28;20474;-69
2023/03/16 09:34:38;;;;;;;5.45;2.53;;;7.30;91.70;;;;;;5105453;28;20040;-69
2023/03/16 09:37:04;;;;;;;5.32;2.67;;;7.40;91.50;;;;;;5098111;28;20024;-69
2023/03/16 09:39:30;;;;;;;4.13;1.85;;;7.50;91.40;;;;;;5093559;28;20074;-69
2023/03/16 09:42:18;;;;;;;5.80;2.45;;;7.50;91.10;;;;;;5100114;28;20047;-70
2023/03/16 09:44:52;;;;;;;3.25;1.80;;;7.50;90.70;;;;;;5111204;28;20185;-69
2023/03/16 09:47:26;;;;;;;4.95;2.38;;;7.60;90.60;;;;;;5104155;28;20024;-70
2023/03/16 09:49:55;;;;;;;6.00;2.13;;;7.60;90.50;;;;;;5113009;28;20073;-68
2023/03/16 09:52:45;;;;;;;4.43;1.70;;;7.70;90.30;;;;;;5092393;28;20532;-70
2023/03/16 09:55:33;;;;;;;4.85;2.15;;;7.70;89.20;;;;;;5096252;28;20059;-71
2023/03/16 09:58:03;;;;;;;7.05;1.95;;;7.70;90.00;;;;;;5102214;28;20113;-70
2023/03/16 10:00:34;;;;;;;5.82;2.05;;;7.80;90.00;;;;;;5100536;28;20027;-70
2023/03/16 10:03:28;;;;;;;6.80;1.85;;;7.90;89.70;;;;;;5097392;28;20028;-71
2023/03/16 10:06:03;;;;;;;6.15;1.77;;;7.90;89.50;;;;;;5092813;28;20024;-72
2023/03/16 10:08:39;;;;;;;6.35;2.17;;;8.00;89.30;;;;;;5097650;28;20039;-71
2023/03/16 10:11:49;;;;;;;4.28;1.88;;;8.10;89.20;;;;;;5097836;28;20020;-71
2023/03/16 10:14:32;;;;;;;6.80;2.00;;;8.10;88.70;;;;;;5088071;28;20503;-72
2023/03/16 10:17:09;;;;;;;3.03;1.98;;;8.20;88.50;;;;;;5102803;28;20036;-72
2023/03/16 10:19:58;;;;;;;4.00;2.08;;;8.20;88.20;;;;;;5099877;28;20040;-72
2023/03/16 10:22:28;;;;;;;5.50;2.00;;;8.30;88.00;;;;;;5099451;28;20020;-72
2023/03/16 10:25:07;;;;;;;6.13;2.15;;;8.40;87.60;;;;;;5096472;28;20562;-73
2023/03/16 10:27:37;;;;;;;7.75;2.28;;;8.40;87.20;;;;;;5093730;28;20059;-72
2023/03/16 10:30:24;;;;;;;5.72;2.00;;;8.50;86.70;;;;;;5099251;28;20031;-72
2023/03/16 10:32:50;;;;;;;6.57;1.60;;;8.50;85.10;;;;;;5078056;28;20162;-72
2023/03/16 10:35:28;;;;;;;3.45;1.75;;;8.60;85.40;;;;;;5096130;28;20589;-72
2023/03/16 10:37:55;;;;;;;4.45;2.15;;;8.60;85.00;;;;;;5078065;28;20039;-72
2023/03/16 10:40:21;;;;;;;4.22;1.60;;;8.70;85.10;;;;;;5084716;28;20542;-73
2023/03/16 10:42:47;;;;;;;4.55;1.58;;;8.80;84.80;;;;;;5105622;28;20119;-73
2023/03/16 10:45:30;;;;;;;2.83;1.48;;;8.80;84.30;;;;;;5104364;28;20551;-73
2023/03/16 10:48:13;;;;;;;6.10;1.80;;;8.90;83.30;;;;;;5099884;28;20034;-73
2023/03/16 10:50:42;;;;;;;7.28;1.65;;;8.90;83.10;;;;;;5099473;28;20646;-73
2023/03/16 10:53:18;;;;;;;4.10;1.50;;;9.00;83.00;;;;;;5097004;28;20031;-72
2023/03/16 10:55:46;;;;;;;3.95;1.48;;;9.00;82.30;;;;;;5097259;28;20032;-73
2023/03/16 10:58:27;;;;;;;4.47;1.40;;;9.10;82.00;;;;;;5109131;28;20503;-73
2023/03/16 11:00:53;;;;;;;3.35;1.60;;;9.10;81.50;;;;;;5101489;28;20142;-74
2023/03/16 11:03:38;;;;;;;2.97;1.60;;;9.10;81.70;;;;;;5102076;28;20036;-73
2023/03/16 11:06:06;;;;;;;4.72;1.77;;;9.20;81.40;;;;;;5101313;28;20160;-73
2023/03/16 11:08:40;;;;;;;5.22;1.80;;;9.20;81.50;;;;;;5105025;28;20030;-73
2023/03/16 11:11:13;;;;;;;2.75;1.70;;;9.30;80.60;;;;;;5092500;28;20016;-73
2023/03/16 11:13:44;;;;;;;6.47;1.92;;;9.30;80.40;;;;;;5096269;28;20517;-74
2023/03/16 11:16:30;;;;;;;4.47;1.75;;;9.30;79.80;;;;;;5094854;28;20028;-73
2023/03/16 11:19:17;;;;;;;4.43;1.83;;;9.30;79.70;;;;;;5084126;28;20043;-72
2023/03/16 11:21:53;;;;;;;3.85;1.70;;;9.40;80.00;;;;;;5080313;28;20114;-72
2023/03/16 11:24:33;;;;;;;4.03;1.70;;;9.50;80.20;;;;;;5092367;28;20042;-73
2023/03/16 11:27:02;;;;;;;4.10;1.98;;;9.50;79.80;;;;;;5108157;28;20038;-72
2023/03/16 11:29:47;;;;;;;6.07;2.47;;;9.60;79.90;;;;;;5104405;28;20444;-73
2023/03/16 11:32:16;;;;;;;;;;;9.70;79.70;;;;;;5100567;28;20068;-72
2023/03/16 11:34:43;;;;;;;5.55;2.28;;;9.70;81.10;;;;;;5093718;28;19932;-72
2023/03/16 11:37:46;;;;;;;4.20;1.55;;;9.70;80.00;;;;;;5077990;28;20036;-72
2023/03/16 11:40:32;;;;;;;3.17;1.40;;;9.70;78.90;;;;;;5076018;28;20031;-72
2023/03/16 11:43:35;;;;;;;2.78;1.20;;;9.80;78.40;;;;;;5095781;28;20534;-73
2023/03/16 11:46:25;;;;;;;6.80;1.70;;;9.80;78.40;;;;;;5087710;28;20028;-74
2023/03/16 11:49:13;;;;;;;1.95;1.33;;;9.80;77.30;;;;;;5090004;28;20345;-73
2023/03/16 11:51:45;;;;;;;4.25;1.73;;;9.80;77.50;;;;;;5080455;28;20028;-73
2023/03/16 11:54:29;;;;;;;5.95;1.90;;;9.90;76.80;;;;;;5081471;28;20514;-73
2023/03/16 11:57:22;;;;;;;5.47;1.70;;;9.90;76.40;;;;;;5093998;28;20122;-73
2023/03/16 11:59:59;;;;;;;5.25;1.77;;;10.00;76.40;;;;;;5072956;28;20036;-73
2023/03/16 12:02:36;;;;;;;4.10;1.40;;;10.00;76.00;;;;;;5097563;28;20020;-74
2023/03/16 12:05:26;;;;;;;2.67;1.45;;;10.10;75.60;;;;;;5101023;28;20088;-75
2023/03/16 12:08:44;;;;;;;4.07;1.58;;;10.10;74.60;;;;;;5095264;28;20536;-74
2023/03/16 12:11:23;;;;;;;2.33;1.33;;;10.20;74.50;;;;;;5067211;28;20036;-73
2023/03/16 12:14:27;;;;;;;4.82;1.85;;;10.20;74.20;;;;;;5097748;28;20091;-74
2023/03/16 12:17:20;;;;;;;3.03;1.30;;;10.20;74.10;;;;;;5096316;28;20023;-74
2023/03/16 12:20:03;;;;;;;4.50;1.55;;;10.20;73.80;;;;;;5076791;28;20505;-73
2023/03/16 12:22:40;;;;;;;6.60;1.58;;;10.20;73.20;;;;;;5099857;28;20031;-73
2023/03/16 12:25:23;;;;;;;4.00;2.10;;;10.30;73.70;;;;;;5088912;28;20502;-74
2023/03/16 12:27:52;;;;;;;5.32;1.77;;;10.30;73.90;;;;;;5092889;28;20028;-74
2023/03/16 12:30:38;;;;;;;4.90;1.85;;;10.30;73.20;;;;;;5090044;28;20486;-73
2023/03/16 12:33:23;;;;;;;5.20;1.60;;;10.40;73.10;;;;;;5094431;28;20554;-73
2023/03/16 12:36:04;;;;;;;;;;;10.40;73.10;;;;;;5096890;28;20027;-73
2023/03/16 12:38:43;;;;;;;3.97;1.73;;;10.50;74.70;;;;;;5097915;28;20011;-72
2023/03/16 12:41:58;;;;;;;4.20;1.65;;;10.40;73.20;;;;;;5094300;28;20039;-73
2023/03/16 12:45:08;;;;;;;2.90;1.52;;;10.40;72.80;;;;;;5064999;28;20040;-73
2023/03/16 12:47:58;;;;;;;6.88;1.90;;;10.50;72.30;;;;;;5046410;28;20033;-73
2023/03/16 12:50:24;;;;;;;3.00;1.10;;;10.50;71.90;;;;;;5080708;28;20371;-72
2023/03/16 12:52:52;;;;;;;3.50;1.50;;;10.40;71.80;;;;;;5083325;28;20024;-73
2023/03/16 12:55:33;;;;;;;2.95;1.60;;;10.50;71.80;;;;;;5090130;28;20506;-73
2023/03/16 12:58:06;;;;;;;3.88;1.77;;;10.50;71.00;;;;;;5094616;28;20055;-73
2023/03/16 13:00:37;;;;;;;4.00;1.50;;;10.50;70.30;;;;;;5088890;28;20023;-71
2023/03/16 13:03:05;;;;;;;4.53;1.90;;;10.60;70.00;;;;;;5090082;28;20025;-71
2023/03/16 13:05:36;;;;;;;3.08;1.20;;;10.50;69.70;;;;;;5089470;28;20082;-71
2023/03/16 13:08:12;;;;;;;2.33;1.20;;;10.60;70.50;;;;;;5080638;28;20013;-71
2023/03/16 13:10:38;;;;;;;3.03;1.23;;;10.60;69.00;;;;;;5090489;28;20035;-72
2023/03/16 13:13:13;;;;;;;3.00;1.02;;;10.60;68.40;;;;;;5090588;28;20068;-71